Time;durP1;ratioP1;P1;durP2;ratioP2;P2;SDS_P1;SDS_P2;PMS_P1;PMS_P2;Temp;Humidity;BMP_temperature;BMP_pressure;BME280_temperature;BME280_humidity;BME280_pressure;Samples;Min_cycle;Max_cycle;Signal;HPM_P1;HPM_P2
2022/10/04 00:01:08;;;;;;;1.85;0.75;;;;;;;6.37;100.00;98873.02;1613807;88;21089;-66
2022/10/04 00:03:43;;;;;;;0.98;0.80;;;;;;;6.38;100.00;98879.97;1613696;88;21098;-68
2022/10/04 00:10:24;;;;;;;0.90;0.72;;;;;;;6.20;100.00;98878.09;1795886;79;27061;-67
2022/10/04 00:13:01;;;;;;;1.27;0.80;;;;;;;6.23;100.00;98886.64;1755670;81;21070;-69
2022/10/04 00:15:36;;;;;;;1.98;0.70;;;;;;;6.29;100.00;98883.80;1755708;81;21470;-65
2022/10/04 00:18:34;;;;;;;2.87;1.02;;;;;;;6.29;100.00;98885.56;1747627;82;20985;-67
2022/10/04 00:21:02;;;;;;;1.05;0.80;;;;;;;6.32;100.00;98885.44;1747806;82;21023;-67
2022/10/04 00:23:40;;;;;;;0.70;0.70;;;;;;;6.42;100.00;98888.53;1748085;82;21022;-67
2022/10/04 00:26:12;;;;;;;1.02;0.80;;;;;;;6.38;100.00;98892.20;1747983;82;20965;-67
2022/10/04 00:28:44;;;;;;;0.80;0.60;;;;;;;6.31;100.00;98896.82;1748088;82;21259;-67
2022/10/04 00:31:23;;;;;;;0.85;0.82;;;;;;;6.27;100.00;98896.54;1748400;82;21045;-67
2022/10/04 00:34:10;;;;;;;0.80;0.80;;;;;;;6.23;100.00;98889.26;1748318;82;20986;-67
2022/10/04 00:36:44;;;;;;;1.10;0.75;;;;;;;6.23;100.00;98887.11;1748023;82;21062;-68
2022/10/04 00:39:14;;;;;;;4.15;0.90;;;;;;;6.22;100.00;98891.48;1748173;82;21096;-68
2022/10/04 00:41:49;;;;;;;2.27;0.98;;;;;;;6.26;100.00;98896.16;1748253;82;21081;-69
2022/10/04 00:44:44;;;;;;;0.75;0.70;;;;;;;6.27;100.00;98895.23;1729630;82;21550;-67
2022/10/04 00:47:37;;;;;;;0.90;0.90;;;;;;;6.28;100.00;98895.18;1748094;82;21112;-67
2022/10/04 00:50:25;;;;;;;0.60;0.60;;;;;;;6.28;100.00;98896.92;1745044;82;21048;-67
2022/10/04 00:52:55;;;;;;;0.70;0.70;;;;;;;6.29;100.00;98907.79;1747852;81;21092;-67
2022/10/04 00:55:36;;;;;;;0.95;0.85;;;;;;;6.31;100.00;98899.44;1748362;82;21928;-67
2022/10/04 00:58:04;;;;;;;;;;;;;;;6.33;100.00;98897.61;1750721;82;21064;-67
2022/10/04 01:00:32;;;;;;;1.30;0.70;;;;;;;6.37;100.00;98899.17;1748225;81;20201;-69
2022/10/04 01:03:13;;;;;;;6.67;0.60;;;;;;;6.36;100.00;98904.02;1718768;82;21057;-65
2022/10/04 01:05:43;;;;;;;3.75;0.70;;;;;;;6.38;100.00;98898.28;1746343;82;21057;-68
2022/10/04 01:08:17;;;;;;;2.65;0.60;;;;;;;6.37;100.00;98900.94;1748125;81;21207;-68
2022/10/04 01:11:03;;;;;;;1.15;0.60;;;;;;;6.37;100.00;98897.86;1748583;82;21026;-67
2022/10/04 01:13:40;;;;;;;0.88;0.60;;;;;;;6.36;100.00;98898.80;1748658;82;21566;-66
2022/10/04 01:16:22;;;;;;;2.12;0.60;;;;;;;6.38;100.00;98900.89;1748833;82;21053;-67
2022/10/04 01:18:50;;;;;;;3.52;0.80;;;;;;;6.40;100.00;98902.15;1748708;82;21033;-66
2022/10/04 01:21:27;;;;;;;0.70;0.70;;;;;;;6.41;100.00;98900.76;1720459;82;22213;-67
2022/10/04 01:24:02;;;;;;;1.00;0.75;;;;;;;6.37;100.00;98899.17;1748245;82;21045;-65
2022/10/04 01:26:37;;;;;;;0.60;0.60;;;;;;;6.42;100.00;98903.79;1745835;82;21153;-67
2022/10/04 01:29:24;;;;;;;0.88;0.80;;;;;;;6.41;100.00;98895.53;1748301;82;21076;-67
2022/10/04 01:31:56;;;;;;;1.00;0.80;;;;;;;6.45;100.00;98902.34;1748367;82;21029;-67
2022/10/04 01:34:26;;;;;;;1.80;0.68;;;;;;;6.46;100.00;98901.42;1748194;82;21128;-68
2022/10/04 01:36:58;;;;;;;1.85;0.85;;;;;;;6.43;100.00;98896.33;1748445;82;21033;-67
2022/10/04 01:39:26;;;;;;;0.80;0.60;;;;;;;6.44;100.00;98903.70;1748282;82;21068;-66
2022/10/04 01:42:04;;;;;;;1.32;0.88;;;;;;;6.45;100.00;98908.89;1748373;82;21025;-68
2022/10/04 01:44:55;;;;;;;1.85;1.00;;;;;;;6.45;100.00;98906.27;1735570;82;21060;-68
2022/10/04 01:47:26;;;;;;;1.00;0.82;;;;;;;6.47;100.00;98904.91;1718394;83;21144;-67
2022/10/04 01:49:53;;;;;;;1.12;0.90;;;;;;;6.44;100.00;98917.66;1718503;83;21502;-67
2022/10/04 01:52:32;;;;;;;0.85;0.70;;;;;;;6.46;100.00;98916.27;1718638;83;21625;-69
2022/10/04 01:55:16;;;;;;;1.30;0.93;;;;;;;6.47;100.00;98914.91;1702540;83;21065;-67
2022/10/04 01:57:49;;;;;;;1.37;1.10;;;;;;;6.49;100.00;98922.70;1718647;83;21040;-68
2022/10/04 02:00:17;;;;;;;1.70;0.78;;;;;;;6.50;100.00;98913.94;1718781;82;21796;-67
2022/10/04 02:03:04;;;;;;;1.20;1.05;;;;;;;6.53;100.00;98920.34;1668975;83;21076;-67
2022/10/04 02:05:39;;;;;;;1.17;0.82;;;;;;;6.53;100.00;98926.04;1718465;83;21089;-67
2022/10/04 02:08:11;;;;;;;3.85;0.95;;;;;;;6.51;100.00;98929.58;1718606;83;21113;-67
2022/10/04 02:10:38;;;;;;;2.62;0.90;;;;;;;6.53;100.00;98927.34;1717561;83;21018;-66
2022/10/04 02:13:10;;;;;;;0.80;0.80;;;;;;;6.50;100.00;98927.86;1718640;83;21322;-68
2022/10/04 02:15:40;;;;;;;0.88;0.70;;;;;;;6.53;100.00;98928.19;1718689;83;21048;-65
2022/10/04 02:18:11;;;;;;;1.00;0.90;;;;;;;6.54;100.00;98932.98;1718620;83;21109;-67
2022/10/04 02:20:38;;;;;;;;;;;;;;;6.53;100.00;98933.88;1721118;83;21621;-66
2022/10/04 02:23:05;;;;;;;2.02;1.00;;;;;;;6.53;100.00;98933.42;1718732;83;20172;-67
2022/10/04 02:25:32;;;;;;;0.98;0.80;;;;;;;6.50;100.00;98933.55;1718345;83;21271;-67
2022/10/04 02:27:58;;;;;;;2.33;0.98;;;;;;;6.43;100.00;98930.33;1718540;83;21089;-66
2022/10/04 02:30:25;;;;;;;1.42;0.90;;;;;;;6.46;100.00;98939.81;1718532;83;21478;-67
2022/10/04 02:32:59;;;;;;;1.07;0.98;;;;;;;6.45;100.00;98941.58;1718417;83;20994;-67
2022/10/04 02:35:35;;;;;;;1.45;0.90;;;;;;;6.47;100.00;98943.68;1718809;83;21077;-68
2022/10/04 02:38:23;;;;;;;0.80;0.72;;;;;;;6.43;100.00;98951.24;1718331;83;21851;-68
2022/10/04 02:41:04;;;;;;;0.70;0.70;;;;;;;6.40;100.00;98953.98;1717985;83;21045;-68
2022/10/04 02:43:39;;;;;;;0.85;0.80;;;;;;;6.41;100.00;98950.45;1718940;82;21001;-67
2022/10/04 02:46:28;;;;;;;0.95;0.75;;;;;;;6.39;100.00;98954.03;1748051;82;21538;-67
2022/10/04 02:48:57;;;;;;;0.57;0.57;;;;;;;6.39;100.00;98956.19;1748590;82;21526;-67
2022/10/04 02:51:38;;;;;;;1.70;0.90;;;;;;;6.43;100.00;98955.16;1748421;82;21111;-68
2022/10/04 02:54:23;;;;;;;2.53;0.60;;;;;;;6.45;100.00;98961.66;1748658;82;21399;-68
2022/10/04 02:56:53;;;;;;;0.95;0.60;;;;;;;6.44;100.00;98964.73;1748085;82;21063;-68
2022/10/04 02:59:20;;;;;;;0.53;0.53;;;;;;;6.50;100.00;98976.25;1748571;82;21049;-66
2022/10/04 03:01:57;;;;;;;0.80;0.75;;;;;;;6.50;100.00;98974.09;1726349;82;21084;-67
2022/10/04 03:04:31;;;;;;;0.62;0.62;;;;;;;6.47;100.00;98975.06;1718448;83;21729;-68
2022/10/04 03:06:59;;;;;;;0.50;0.50;;;;;;;6.49;100.00;98978.94;1718258;83;21604;-66
2022/10/04 03:09:26;;;;;;;1.47;0.60;;;;;;;6.51;100.00;98983.20;1718177;83;21037;-66
2022/10/04 03:11:55;;;;;;;0.90;0.60;;;;;;;6.50;100.00;98986.70;1718215;83;22153;-66
2022/10/04 03:14:24;;;;;;;0.75;0.60;;;;;;;6.49;100.00;98992.86;1718423;83;21077;-67
2022/10/04 03:16:55;;;;;;;0.62;0.62;;;;;;;6.49;100.00;98992.86;1718336;83;21215;-66
2022/10/04 03:19:24;;;;;;;1.27;0.70;;;;;;;6.47;100.00;98996.45;1718344;83;21136;-67
2022/10/04 03:21:53;;;;;;;0.60;0.60;;;;;;;6.46;100.00;98995.58;1718693;83;21105;-67
2022/10/04 03:24:33;;;;;;;2.27;0.75;;;;;;;6.47;100.00;98992.06;1718418;83;21041;-66
2022/10/04 03:27:03;;;;;;;0.57;0.57;;;;;;;6.53;100.00;98997.97;1718545;83;21006;-66
2022/10/04 03:29:32;;;;;;;1.42;0.78;;;;;;;6.50;100.00;99002.40;1718616;83;21118;-67
2022/10/04 03:32:02;;;;;;;1.35;0.80;;;;;;;6.48;100.00;99004.22;1718395;83;21511;-67
2022/10/04 03:34:38;;;;;;;0.93;0.65;;;;;;;6.43;100.00;99003.55;1718264;83;21080;-68
2022/10/04 03:37:10;;;;;;;0.60;0.60;;;;;;;6.42;100.00;99013.62;1718261;83;21041;-67
2022/10/04 03:39:41;;;;;;;2.27;0.75;;;;;;;6.44;100.00;99016.16;1718176;83;21041;-69
2022/10/04 03:42:27;;;;;;;6.85;0.80;;;;;;;6.40;100.00;99016.75;1718189;83;21529;-67
2022/10/04 03:45:00;;;;;;;0.70;0.70;;;;;;;6.39;100.00;99020.26;1734902;82;21003;-67
2022/10/04 03:47:34;;;;;;;0.55;0.53;;;;;;;6.43;100.00;99018.40;1720049;82;21077;-68
2022/10/04 03:50:06;;;;;;;0.53;0.53;;;;;;;6.47;100.00;99024.76;1748174;82;21089;-68
2022/10/04 03:52:34;;;;;;;0.50;0.50;;;;;;;6.49;100.00;99026.02;1748118;82;20978;-66
2022/10/04 03:55:04;;;;;;;0.50;0.50;;;;;;;6.45;100.00;99023.96;1747921;82;21161;-68
2022/10/04 03:57:30;;;;;;;1.45;0.80;;;;;;;6.46;100.00;99028.73;1748530;82;21523;-68
2022/10/04 03:59:57;;;;;;;2.85;0.70;;;;;;;6.46;100.00;99028.27;1748168;82;21588;-67
2022/10/04 04:02:37;;;;;;;0.62;0.62;;;;;;;6.47;100.00;99031.30;1748179;82;21042;-66
2022/10/04 04:05:29;;;;;;;0.60;0.60;;;;;;;6.47;100.00;99033.06;1748256;82;21550;-67
2022/10/04 04:08:14;;;;;;;0.60;0.50;;;;;;;6.43;100.00;99034.94;1748229;82;27112;-66
2022/10/04 04:10:48;;;;;;;0.90;0.60;;;;;;;6.41;100.00;99032.83;1747836;81;21062;-67
2022/10/04 04:13:41;;;;;;;0.50;0.50;;;;;;;6.42;100.00;99036.29;1747928;82;21525;-67
2022/10/04 04:16:08;;;;;;;0.57;0.57;;;;;;;6.37;100.00;99044.30;1747659;82;20995;-68
2022/10/04 04:18:36;;;;;;;0.50;0.50;;;;;;;6.38;100.00;99042.56;1696835;82;21518;-69
2022/10/04 04:21:03;;;;;;;0.68;0.50;;;;;;;6.39;100.00;99043.80;1747977;82;21782;-66
2022/10/04 04:23:39;;;;;;;0.50;0.50;;;;;;;6.39;100.00;99052.95;1748023;82;21053;-69
2022/10/04 04:26:39;;;;;;;0.62;0.60;;;;;;;6.39;100.00;99058.18;1748403;82;21044;-69
2022/10/04 04:29:35;;;;;;;1.55;0.80;;;;;;;6.38;100.00;99064.33;1748160;82;21030;-68
2022/10/04 04:32:34;;;;;;;0.70;0.62;;;;;;;6.40;100.00;99065.14;1748168;82;21064;-67
2022/10/04 04:35:07;;;;;;;2.77;0.60;;;;;;;6.38;100.00;99064.80;1748144;82;21551;-67
2022/10/04 04:37:37;;;;;;;0.57;0.57;;;;;;;6.38;100.00;99068.25;1748575;82;21003;-67
2022/10/04 04:40:18;;;;;;;1.07;0.70;;;;;;;6.40;100.00;99069.06;1748218;82;21057;-68
2022/10/04 04:42:45;;;;;;;0.60;0.60;;;;;;;6.42;100.00;99064.63;1746413;82;21068;-67
2022/10/04 04:45:21;;;;;;;3.22;0.70;;;;;;;6.45;100.00;99075.42;1727386;82;21493;-68
2022/10/04 04:47:52;;;;;;;0.82;0.82;;;;;;;6.47;100.00;99074.91;1718457;83;22392;-67
2022/10/04 04:50:22;;;;;;;0.57;0.50;;;;;;;6.49;100.00;99079.64;1718361;83;21063;-68
2022/10/04 04:52:55;;;;;;;0.60;0.60;;;;;;;6.51;100.00;99087.83;1718625;83;21553;-68
2022/10/04 04:55:26;;;;;;;0.72;0.60;;;;;;;6.55;100.00;99090.31;1718489;83;21061;-68
2022/10/04 04:57:55;;;;;;;0.65;0.50;;;;;;;6.55;100.00;99094.23;1717795;83;21064;-68
2022/10/04 05:00:29;;;;;;;3.30;0.72;;;;;;;6.59;100.00;99097.14;1718355;83;21162;-68
2022/10/04 05:02:59;;;;;;;4.65;0.50;;;;;;;6.59;100.00;99103.69;1718766;83;21065;-67
2022/10/04 05:05:31;;;;;;;0.72;0.62;;;;;;;6.61;100.00;99106.64;1718370;83;21502;-69
2022/10/04 05:08:21;;;;;;;0.80;0.70;;;;;;;6.63;100.00;99112.67;1717781;83;21159;-68
2022/10/04 05:11:01;;;;;;;0.75;0.70;;;;;;;6.66;100.00;99115.63;1709955;83;21066;-67
2022/10/04 05:13:49;;;;;;;3.35;0.70;;;;;;;6.68;100.00;99117.73;1704553;84;21822;-68
2022/10/04 05:16:48;;;;;;;0.60;0.60;;;;;;;6.65;100.00;99124.40;1704705;83;21485;-69
2022/10/04 05:19:31;;;;;;;1.10;0.80;;;;;;;6.67;100.00;99129.09;1704875;84;22291;-68
2022/10/04 05:22:01;;;;;;;0.72;0.62;;;;;;;6.71;100.00;99130.69;1704728;84;21317;-67
2022/10/04 05:24:33;;;;;;;1.75;0.80;;;;;;;6.77;100.00;99135.70;1705170;84;21041;-67
2022/10/04 05:27:06;;;;;;;1.20;0.90;;;;;;;6.81;100.00;99142.54;1705224;84;21129;-68
2022/10/04 05:29:36;;;;;;;1.25;0.80;;;;;;;6.88;100.00;99141.39;1705108;84;21543;-66
2022/10/04 05:32:42;;;;;;;0.72;0.72;;;;;;;6.94;100.00;99150.30;1704846;84;21038;-67
2022/10/04 05:35:17;;;;;;;1.37;0.80;;;;;;;7.04;100.00;99156.50;1704767;84;21126;-67
2022/10/04 05:38:04;;;;;;;1.45;0.85;;;;;;;7.14;100.00;99154.78;1704739;82;21050;-68
2022/10/04 05:41:07;;;;;;;0.80;0.80;;;;;;;7.18;100.00;99159.47;1704902;83;21601;-69
2022/10/04 05:43:48;;;;;;;1.27;0.78;;;;;;;7.25;100.00;99168.78;1705602;82;21093;-67
2022/10/04 05:46:26;;;;;;;4.20;0.80;;;;;;;7.29;100.00;99170.81;1734401;82;21006;-69
2022/10/04 05:49:05;;;;;;;1.62;0.85;;;;;;;7.33;100.00;99178.48;1732395;82;21054;-69
2022/10/04 05:51:37;;;;;;;1.82;0.80;;;;;;;7.39;100.00;99181.81;1734503;82;21058;-68
2022/10/04 05:54:03;;;;;;;1.70;1.05;;;;;;;7.41;100.00;99183.88;1732900;82;21233;-68
2022/10/04 05:56:40;;;;;;;3.00;1.25;;;;;;;7.44;100.00;99175.92;1734210;82;21047;-68
2022/10/04 05:59:34;;;;;;;3.45;0.80;;;;;;;7.47;100.00;99179.72;1734311;82;21539;-70
2022/10/04 06:02:21;;;;;;;1.27;0.80;;;;;;;7.47;100.00;99181.03;1733967;82;21034;-68
2022/10/04 06:05:16;;;;;;;0.70;0.70;;;;;;;7.47;100.00;99183.66;1734668;82;21123;-68
2022/10/04 06:07:59;;;;;;;1.30;0.90;;;;;;;7.49;100.00;99187.06;1734122;82;21183;-67
2022/10/04 06:10:57;;;;;;;1.00;0.90;;;;;;;7.47;100.00;99187.12;1738462;81;21041;-67
2022/10/04 06:14:01;;;;;;;1.55;1.10;;;;;;;7.48;100.00;99190.61;1729499;82;21088;-67
2022/10/04 06:16:41;;;;;;;4.72;1.20;;;;;;;7.50;100.00;99191.38;1748091;82;21093;-69
2022/10/04 06:19:33;;;;;;;2.17;1.10;;;;;;;7.53;100.00;99203.07;1745254;82;21093;-68
2022/10/04 06:22:19;;;;;;;3.65;0.95;;;;;;;7.58;100.00;99207.66;1748378;82;21096;-69
2022/10/04 06:24:58;;;;;;;0.80;0.80;;;;;;;7.64;100.00;99206.13;1748146;82;21146;-69
2022/10/04 06:27:52;;;;;;;1.82;0.90;;;;;;;7.70;100.00;99208.48;1748260;82;21075;-69
2022/10/04 06:30:19;;;;;;;1.65;1.22;;;;;;;7.75;100.00;99213.10;1748179;82;21070;-67
2022/10/04 06:33:20;;;;;;;4.62;1.22;;;;;;;7.78;100.00;99218.67;1748180;82;21051;-68
2022/10/04 06:36:07;;;;;;;2.35;1.10;;;;;;;7.84;100.00;99222.34;1748413;82;21252;-69
2022/10/04 06:38:55;;;;;;;1.30;1.10;;;;;;;7.89;100.00;99226.96;1746817;82;21092;-67
2022/10/04 06:41:51;;;;;;;3.12;1.00;;;;;;;7.94;100.00;99230.25;1748326;82;21620;-68
2022/10/04 06:44:38;;;;;;;2.15;1.30;;;;;;;8.01;100.00;99232.16;1690532;82;21132;-67
2022/10/04 06:47:36;;;;;;;1.35;1.02;;;;;;;8.07;100.00;99238.45;1748176;82;21046;-68
2022/10/04 06:50:23;;;;;;;1.85;1.20;;;;;;;8.09;100.00;99239.23;1748341;82;21226;-67
2022/10/04 06:53:15;;;;;;;1.42;1.00;;;;;;;8.17;100.00;99239.80;1748003;82;21483;-68
2022/10/04 06:56:04;;;;;;;1.67;1.12;;;;;;;8.23;100.00;99243.07;1748470;82;21006;-68
2022/10/04 06:59:06;;;;;;;3.20;1.33;;;;;;;8.25;100.00;99247.80;1748207;82;21522;-68
2022/10/04 07:01:35;;;;;;;2.27;1.50;;;;;;;8.35;100.00;99255.66;1748322;82;21049;-69
2022/10/04 07:04:35;;;;;;;2.08;1.37;;;;;;;8.38;100.00;99254.25;1747759;82;21168;-69
2022/10/04 07:07:34;;;;;;;1.55;1.20;;;;;;;8.41;100.00;99256.77;1747731;81;21630;-68
2022/10/04 07:10:41;;;;;;;5.40;1.60;;;;;;;8.45;100.00;99260.97;1747809;82;21577;-69
2022/10/04 07:13:13;;;;;;;2.55;1.62;;;;;;;8.44;100.00;99263.64;1741684;82;21743;-69
2022/10/04 07:15:57;;;;;;;4.17;1.62;;;;;;;8.44;100.00;99265.80;1741886;82;21143;-69
2022/10/04 07:18:31;;;;;;;3.45;1.35;;;;;;;8.48;100.00;99260.83;1742434;82;21403;-67
2022/10/04 07:21:04;;;;;;;5.67;1.20;;;;;;;8.50;100.00;99269.96;1741796;82;21088;-68
2022/10/04 07:23:37;;;;;;;2.37;1.57;;;;;;;8.46;100.00;99267.91;1742213;82;21050;-68
2022/10/04 07:26:24;;;;;;;1.75;1.30;;;;;;;8.47;100.00;99276.66;1742331;82;21386;-67
2022/10/04 07:31:38;;;;;;;5.00;1.30;;;;;;;8.44;100.00;99280.70;1742257;82;22111;-68
2022/10/04 07:34:18;;;;;;;3.47;1.20;;;;;;;8.43;100.00;99283.80;1742165;82;21065;-68
2022/10/04 07:36:58;;;;;;;3.77;1.40;;;;;;;8.42;100.00;99283.84;1742063;82;21066;-69
2022/10/04 07:40:00;;;;;;;5.30;1.20;;;;;;;8.42;100.00;99292.59;1742266;82;21609;-69
2022/10/04 07:42:47;;;;;;;1.57;1.20;;;;;;;8.43;100.00;99303.47;1741633;82;21045;-67
2022/10/04 07:45:32;;;;;;;1.92;1.40;;;;;;;8.40;100.00;99308.39;1742217;82;22025;-68
2022/10/04 07:48:18;;;;;;;4.33;1.40;;;;;;;8.38;100.00;99300.16;1741336;82;20998;-68
2022/10/04 07:51:00;;;;;;;2.85;1.60;;;;;;;8.38;100.00;99308.88;1742083;82;21066;-67
2022/10/04 07:53:38;;;;;;;4.12;1.82;;;;;;;8.45;100.00;99316.53;1741492;82;21065;-70
2022/10/04 07:56:16;;;;;;;3.35;1.30;;;;;;;8.50;100.00;99311.48;1742148;82;21080;-67
2022/10/04 07:59:16;;;;;;;2.22;1.57;;;;;;;8.55;100.00;99325.25;1741727;82;22059;-68
2022/10/04 08:02:05;;;;;;;3.67;1.50;;;;;;;8.61;100.00;99325.02;1741934;82;21034;-68
2022/10/04 08:05:07;;;;;;;2.77;1.80;;;;;;;8.67;100.00;99323.04;1742143;82;21094;-69
2022/10/04 08:07:40;;;;;;;;;;;;;;;8.70;100.00;99325.55;1744663;82;21525;-68
2022/10/04 08:10:38;;;;;;;6.28;1.67;;;;;;;8.76;100.00;99327.91;1678783;82;20204;-67
2022/10/04 08:13:16;;;;;;;6.17;1.67;;;;;;;8.82;100.00;99328.96;1742337;82;22145;-68
2022/10/04 08:15:43;;;;;;;2.62;1.57;;;;;;;8.88;100.00;99335.27;1743393;82;21101;-69
2022/10/04 08:18:53;;;;;;;3.00;1.77;;;;;;;8.90;100.00;99330.78;1741825;82;21042;-67
2022/10/04 08:21:30;;;;;;;7.12;1.80;;;;;;;8.97;100.00;99332.25;1742337;82;21338;-67
2022/10/04 08:24:21;;;;;;;4.78;1.80;;;;;;;9.01;100.00;99336.90;1742186;82;21101;-67
2022/10/04 08:27:17;;;;;;;2.17;1.70;;;;;;;9.02;100.00;99340.78;1742696;82;21517;-68
2022/10/04 08:29:58;;;;;;;3.75;1.95;;;;;;;8.99;100.00;99347.45;1742275;82;21065;-69
2022/10/04 08:32:33;;;;;;;4.62;1.60;;;;;;;8.96;100.00;99353.32;1715755;82;21018;-69
2022/10/04 08:35:27;;;;;;;1.95;1.55;;;;;;;8.92;100.00;99355.20;1742349;82;21178;-68
2022/10/04 08:38:02;;;;;;;4.08;1.82;;;;;;;8.88;100.00;99356.28;1734995;82;20979;-70
2022/10/04 08:40:46;;;;;;;2.30;1.70;;;;;;;8.83;100.00;99363.48;1742607;82;21140;-67
2022/10/04 08:43:55;;;;;;;4.33;1.77;;;;;;;8.83;100.00;99363.48;1706810;82;21097;-68
2022/10/04 08:46:50;;;;;;;2.70;1.50;;;;;;;8.83;100.00;99372.66;1696534;83;21096;-68
2022/10/04 08:49:56;;;;;;;3.00;1.90;;;;;;;8.84;100.00;99372.23;1712818;83;21572;-70
2022/10/04 08:52:58;;;;;;;1.80;1.55;;;;;;;8.80;100.00;99380.22;1712848;83;21050;-67
2022/10/04 08:56:07;;;;;;;4.58;2.08;;;;;;;8.83;100.00;99381.85;1713935;82;21212;-70
2022/10/04 08:59:05;;;;;;;4.55;1.80;;;;;;;8.88;100.00;99394.36;1712775;83;21053;-68
2022/10/04 09:01:51;;;;;;;2.55;1.65;;;;;;;8.86;100.00;99394.88;1677454;84;21052;-69
2022/10/04 09:04:49;;;;;;;4.95;2.12;;;;;;;8.86;100.00;99394.88;1671693;85;21119;-69
2022/10/04 09:07:52;;;;;;;8.60;2.00;;;;;;;8.87;100.00;99401.82;1678258;85;21158;-69
2022/10/04 09:11:03;;;;;;;3.12;1.87;;;;;;;8.88;100.00;99403.55;1650517;86;21128;-69
2022/10/04 09:14:08;;;;;;;3.15;1.95;;;;;;;8.93;100.00;99398.95;1712458;83;21089;-69
2022/10/04 09:16:48;;;;;;;3.08;1.70;;;;;;;9.02;100.00;99410.38;1712752;83;21042;-70
2022/10/04 09:19:51;;;;;;;3.20;1.90;;;;;;;9.06;100.00;99412.87;1712712;83;21483;-69
2022/10/04 09:22:47;;;;;;;2.87;1.52;;;;;;;9.10;100.00;99413.14;1712526;83;21088;-69
2022/10/04 09:25:40;;;;;;;4.33;1.95;;;;;;;9.21;100.00;99421.42;1711915;83;21070;-69
2022/10/04 09:28:19;;;;;;;3.72;2.08;;;;;;;9.33;100.00;99429.23;1709569;83;21086;-69
2022/10/04 09:31:27;;;;;;;5.95;1.92;;;;;;;9.37;100.00;99429.03;1697889;83;21093;-69
2022/10/04 09:34:21;;;;;;;3.33;1.62;;;;;;;9.42;100.00;99440.66;1683902;83;21049;-69
2022/10/04 09:37:25;;;;;;;2.65;1.90;;;;;;;9.47;100.00;99443.94;1712641;83;21121;-70
2022/10/04 09:40:43;;;;;;;4.45;2.05;;;;;;;9.48;100.00;99440.84;1712511;83;21034;-69
2022/10/04 09:43:49;;;;;;;5.45;1.90;;;;;;;9.50;100.00;99446.89;1712404;83;21470;-69
2022/10/04 09:46:50;;;;;;;5.08;2.02;;;;;;;9.55;100.00;99454.14;1659789;83;21664;-69
2022/10/04 09:49:36;;;;;;;3.75;2.20;;;;;;;9.55;100.00;99447.56;1712546;83;21073;-69
2022/10/04 09:52:49;;;;;;;7.92;2.10;;;;;;;9.63;100.00;99458.59;1712875;83;21536;-70
2022/10/04 09:55:34;;;;;;;3.30;2.20;;;;;;;9.71;100.00;99459.11;1712530;83;21239;-70
2022/10/04 09:58:28;;;;;;;5.58;1.98;;;;;;;9.72;100.00;99456.86;1712488;83;21036;-69
2022/10/04 10:01:13;;;;;;;5.60;2.60;;;;;;;9.71;100.00;99460.43;1682258;83;21009;-69
2022/10/04 10:04:27;;;;;;;4.33;2.22;;;;;;;9.72;100.00;99458.17;1712570;83;21037;-69
2022/10/04 10:07:23;;;;;;;3.62;2.27;;;;;;;9.71;100.00;99467.44;1712402;83;21015;-69
2022/10/04 10:13:41;;;;;;;7.90;2.50;;;;;;;9.62;100.00;99468.72;1717346;83;21050;-69
2022/10/04 10:16:52;;;;;;;4.67;2.20;;;;;;;9.64;100.00;99472.14;1718521;83;21514;-69
2022/10/04 10:19:47;;;;;;;4.72;2.50;;;;;;;9.70;100.00;99474.48;1718707;83;21035;-69
2022/10/04 10:22:50;;;;;;;4.95;2.65;;;;;;;9.70;100.00;99474.48;1718433;83;21065;-69
2022/10/04 10:26:14;;;;;;;5.75;2.40;;;;;;;9.71;100.00;99481.47;1718645;83;21524;-69
2022/10/04 10:29:09;;;;;;;4.58;3.00;;;;;;;9.77;100.00;99478.55;1718390;83;21080;-69
2022/10/04 10:31:55;;;;;;;6.08;3.02;;;;;;;9.81;100.00;99477.49;1717814;83;21540;-69
2022/10/04 10:34:51;;;;;;;4.95;2.80;;;;;;;9.84;100.00;99488.33;1718482;83;21042;-69
2022/10/04 10:37:44;;;;;;;4.78;3.00;;;;;;;9.88;100.00;99486.81;1718128;83;21033;-70
2022/10/04 10:40:36;;;;;;;6.70;2.67;;;;;;;9.92;100.00;99484.06;1718249;83;21942;-70
2022/10/04 10:43:31;;;;;;;6.35;3.00;;;;;;;9.99;100.00;99485.50;1718361;83;21014;-69
2022/10/04 10:46:15;;;;;;;3.87;2.47;;;;;;;10.05;100.00;99483.89;1718496;83;21042;-69
2022/10/04 10:48:57;;;;;;;4.05;2.50;;;;;;;10.12;100.00;99487.09;1681524;85;21062;-69
2022/10/04 10:51:36;;;;;;;;;;;;;;;10.23;100.00;99499.31;1721405;83;21062;-69
2022/10/04 10:54:41;;;;;;;4.53;2.72;;;;;;;10.24;100.00;99499.25;1717523;83;21233;-70
2022/10/04 10:57:51;;;;;;;6.15;2.92;;;;;;;10.28;100.00;99498.22;1681241;85;21078;-69
2022/10/04 11:00:25;;;;;;;5.35;2.80;;;;;;;10.31;100.00;99501.61;1718098;83;21557;-69
2022/10/04 11:03:24;;;;;;;5.78;2.55;;;;;;;10.24;100.00;99501.88;1718049;83;21708;-69
2022/10/04 11:06:26;;;;;;;5.60;2.67;;;;;;;10.23;100.00;99502.78;1680918;85;21069;-69
2022/10/04 11:09:27;;;;;;;5.42;2.62;;;;;;;10.28;100.00;99500.86;1718334;83;21872;-69
2022/10/04 11:12:39;;;;;;;9.13;2.97;;;;;;;10.40;100.00;99513.03;1716919;83;21041;-69
2022/10/04 11:15:32;;;;;;;5.30;2.72;;;;;;;10.42;100.00;99508.55;1712557;83;21578;-70
2022/10/04 11:18:24;;;;;;;4.83;2.33;;;;;;;10.51;100.00;99513.39;1678207;85;22337;-69
2022/10/04 11:21:33;;;;;;;5.80;2.50;;;;;;;10.55;100.00;99516.28;1666497;86;21133;-69
2022/10/04 11:24:33;;;;;;;4.25;2.60;;;;;;;10.64;100.00;99509.27;1678734;85;21222;-69
2022/10/04 11:27:42;;;;;;;4.42;2.75;;;;;;;10.75;100.00;99522.41;1666229;86;20943;-68
2022/10/04 11:30:23;;;;;;;6.10;2.55;;;;;;;10.77;100.00;99526.67;1678232;85;21077;-68
2022/10/04 11:33:39;;;;;;;5.53;2.40;;;;;;;10.71;100.00;99512.47;1666640;86;21081;-68
2022/10/04 11:36:20;;;;;;;4.12;3.02;;;;;;;10.65;100.00;99524.59;1712812;83;21018;-68
2022/10/04 11:39:29;;;;;;;4.45;2.67;;;;;;;10.60;100.00;99535.34;1711082;83;21232;-67
2022/10/04 11:42:04;;;;;;;4.80;2.90;;;;;;;10.54;100.00;99533.02;1712600;83;21112;-67
2022/10/04 11:45:05;;;;;;;5.10;3.22;;;;;;;10.43;100.00;99547.98;1726334;82;21038;-68
2022/10/04 11:47:47;;;;;;;5.58;3.60;;;;;;;10.41;100.00;99542.39;1745300;82;21075;-69
2022/10/04 11:50:34;;;;;;;4.40;3.12;;;;;;;10.33;100.00;99547.14;1745277;82;21052;-67
2022/10/04 11:53:53;;;;;;;5.90;3.37;;;;;;;10.28;100.00;99552.17;1714306;82;22208;-66
2022/10/04 11:56:55;;;;;;;8.48;3.70;;;;;;;10.21;100.00;99557.26;1745392;81;21033;-68
2022/10/04 11:59:37;;;;;;;8.25;4.17;;;;;;;10.21;100.00;99554.62;1695094;84;21082;-68
2022/10/04 12:02:55;;;;;;;7.45;3.60;;;;;;;10.25;100.00;99562.78;1734282;82;21041;-67
2022/10/04 12:05:49;;;;;;;5.10;3.40;;;;;;;10.13;100.00;99565.13;1745268;82;21075;-67
2022/10/04 12:08:40;;;;;;;5.10;3.62;;;;;;;9.99;100.00;99559.16;1745179;82;21137;-68
2022/10/04 12:12:35;;;;;;;7.03;3.72;;;;;;;9.85;100.00;99562.38;1745226;82;21041;-70
2022/10/04 12:14:30;;;;;;;6.55;3.98;;;;;;;9.72;100.00;99565.98;1744563;82;21528;-68
2022/10/04 12:17:12;;;;;;;9.10;4.25;;;;;;;9.66;100.00;99567.55;1748457;82;21075;-70
2022/10/04 12:20:31;;;;;;;9.25;3.92;;;;;;;9.60;100.00;99567.83;1748689;82;21104;-68
2022/10/04 12:23:38;;;;;;;5.53;4.15;;;;;;;9.54;100.00;99563.66;1748575;81;21801;-68
2022/10/04 12:28:00;;;;;;;6.75;3.75;;;;;;;9.34;100.00;99575.02;1796550;79;28152;-68
2022/10/04 12:30:55;;;;;;;7.45;4.72;;;;;;;9.25;100.00;99571.45;1756598;81;21064;-69
2022/10/04 12:33:39;;;;;;;6.78;4.20;;;;;;;9.23;100.00;99566.72;1755386;81;22056;-68
2022/10/04 12:36:29;;;;;;;7.17;4.25;;;;;;;9.18;100.00;99576.56;1755780;81;21079;-69
2022/10/04 12:39:07;;;;;;;7.73;4.33;;;;;;;9.20;100.00;99565.50;1756760;81;21089;-67
2022/10/04 12:41:43;;;;;;;7.53;4.30;;;;;;;9.26;100.00;99563.95;1755807;81;21046;-68
2022/10/04 12:44:39;;;;;;;7.75;4.37;;;;;;;9.31;100.00;99564.61;1756501;81;21531;-68
2022/10/04 12:47:33;;;;;;;7.58;4.37;;;;;;;9.38;100.00;99572.64;1755789;81;21633;-69
2022/10/04 12:50:37;;;;;;;6.10;3.92;;;;;;;9.47;100.00;99582.39;1755947;81;21090;-68
2022/10/04 12:53:35;;;;;;;10.20;5.00;;;;;;;9.53;100.00;99575.11;1756256;81;21527;-69
2022/10/04 12:56:21;;;;;;;10.43;4.90;;;;;;;9.56;100.00;99585.48;1755787;81;21078;-69
2022/10/04 12:59:19;;;;;;;6.17;4.60;;;;;;;9.57;100.00;99574.50;1756334;81;21071;-69
2022/10/04 13:01:57;;;;;;;5.92;4.40;;;;;;;9.59;100.00;99581.44;1756239;81;21219;-68
2022/10/04 13:04:47;;;;;;;6.80;4.72;;;;;;;9.60;100.00;99580.97;1756625;81;21124;-70
2022/10/04 13:07:37;;;;;;;8.15;4.40;;;;;;;9.61;100.00;99587.45;1700866;84;21064;-68